Time;durP1;ratioP1;P1;durP2;ratioP2;P2;SDS_P1;SDS_P2;PMS_P1;PMS_P2;Temp;Humidity;BMP_temperature;BMP_pressure;BME280_temperature;BME280_humidity;BME280_pressure;Samples;Min_cycle;Max_cycle;Signal;HPM_P1;HPM_P2
2023/05/20 00:02:20;;;;;;;13.82;5.82;;;;;;;;;;5034603;28;20132;-69
2023/05/20 00:04:46;;;;;;;15.60;5.78;;;;;;;;;;5000222;28;20057;-69
2023/05/20 00:07:12;;;;;;;16.45;5.90;;;;;;;;;;5033200;28;20045;-69
2023/05/20 00:09:39;;;;;;;13.02;5.80;;;;;;;;;;5031671;28;20523;-69
2023/05/20 00:12:05;;;;;;;13.90;5.93;;;;;;;;;;5030613;28;20045;-70
2023/05/20 00:14:31;;;;;;;15.77;6.25;;;;;;;;;;5022355;28;20493;-70
2023/05/20 00:16:57;;;;;;;14.65;6.53;;;;;;;;;;5007329;28;20049;-70
2023/05/20 00:19:23;;;;;;;15.02;5.93;;;;;;;;;;5034046;28;20046;-69
2023/05/20 00:21:49;;;;;;;18.25;6.25;;;;;;;;;;5016790;28;20168;-70
2023/05/20 00:24:15;;;;;;;17.63;5.80;;;;;;;;;;5016319;28;20128;-69
2023/05/20 00:26:41;;;;;;;12.43;5.85;;;;;;;;;;5034154;28;20046;-69
2023/05/20 00:29:07;;;;;;;17.10;6.32;;;;;;;;;;5034099;28;20131;-69
2023/05/20 00:31:33;;;;;;;13.80;5.57;;;;;;;;;;5016280;28;20105;-70
2023/05/20 00:33:59;;;;;;;17.27;6.68;;;;;;;;;;5031006;28;20045;-70
2023/05/20 00:36:26;;;;;;;17.17;6.40;;;;;;;;;;5033773;28;20049;-68
2023/05/20 00:38:52;;;;;;;16.77;6.40;;;;;;;;;;5033808;28;20087;-68
2023/05/20 00:41:18;;;;;;;14.43;6.07;;;;;;;;;;5020389;28;20053;-67
2023/05/20 00:43:46;;;;;;;14.35;6.20;;;;;;;;;;5031797;28;20042;-68
2023/05/20 00:46:13;;;;;;;14.43;5.90;;;;;;;;;;5033822;28;20084;-68
2023/05/20 00:48:41;;;;;;;13.52;6.07;;;;;;;;;;5033567;28;20396;-69
2023/05/20 00:51:07;;;;;;;14.77;6.45;;;;;;;;;;5026596;28;20064;-68
2023/05/20 00:53:35;;;;;;;14.73;5.93;;;;;;;;;;5033703;28;20038;-69
2023/05/20 00:56:01;;;;;;;14.20;6.13;;;;;;;;;;5033506;28;20376;-68
2023/05/20 00:58:27;;;;;;;11.43;5.88;;;;;;;;;;5033814;28;20042;-68
2023/05/20 01:00:53;;;;;;;14.38;6.20;;;;;;;;;;5033352;28;20449;-68
2023/05/20 01:03:19;;;;;;;15.18;5.90;;;;;;;;;;5033383;28;20041;-69
2023/05/20 01:05:45;;;;;;;14.40;5.70;;;;;;;;;;5033369;28;20422;-68
2023/05/20 01:08:12;;;;;;;11.70;5.97;;;;;;;;;;5015760;28;20041;-68
2023/05/20 01:10:41;;;;;;;16.27;5.97;;;;;;;;;;5033114;28;20049;-68
2023/05/20 01:13:09;;;;;;;14.98;5.97;;;;;;;;;;5033574;28;20124;-68
2023/05/20 01:15:36;;;;;;;11.60;5.50;;;;;;;;;;5032992;28;20390;-68
2023/05/20 01:18:06;;;;;;;12.75;5.85;;;;;;;;;;5033482;28;20147;-68
2023/05/20 01:20:32;;;;;;;11.18;5.70;;;;;;;;;;5033454;28;20053;-69
2023/05/20 01:22:59;;;;;;;13.43;5.47;;;;;;;;;;5033382;28;20045;-68
2023/05/20 01:25:25;;;;;;;10.23;5.50;;;;;;;;;;5031306;28;20049;-68
2023/05/20 01:27:51;;;;;;;12.90;5.78;;;;;;;;;;5033253;28;20042;-68
2023/05/20 01:30:18;;;;;;;11.32;5.90;;;;;;;;;;5032833;28;20091;-68
2023/05/20 01:32:48;;;;;;;11.75;6.07;;;;;;;;;;5015360;28;20460;-69
2023/05/20 01:35:15;;;;;;;10.68;5.88;;;;;;;;;;5032924;28;20052;-68
2023/05/20 01:37:42;;;;;;;11.60;5.55;;;;;;;;;;5032479;28;20045;-69
2023/05/20 01:40:09;;;;;;;11.90;5.63;;;;;;;;;;5017697;28;20219;-68
2023/05/20 01:42:35;;;;;;;10.55;5.10;;;;;;;;;;5032839;28;20041;-69
2023/05/20 01:45:01;;;;;;;12.05;5.70;;;;;;;;;;5032589;28;20124;-69
2023/05/20 01:47:27;;;;;;;11.00;5.22;;;;;;;;;;5032570;28;20690;-69
2023/05/20 01:49:53;;;;;;;12.68;6.35;;;;;;;;;;5032497;28;20045;-70
2023/05/20 01:52:20;;;;;;;11.65;5.70;;;;;;;;;;5032599;28;20049;-68
2023/05/20 01:54:49;;;;;;;14.93;5.47;;;;;;;;;;5004659;28;20041;-68
2023/05/20 01:57:17;;;;;;;11.70;5.22;;;;;;;;;;5031217;28;20053;-69
2023/05/20 01:59:43;;;;;;;8.95;5.35;;;;;;;;;;5031498;28;20049;-69
2023/05/20 02:02:09;;;;;;;10.13;5.20;;;;;;;;;;5032125;28;20405;-68
2023/05/20 02:04:35;;;;;;;9.93;5.70;;;;;;;;;;5029478;28;20064;-69
2023/05/20 02:07:01;;;;;;;10.55;5.35;;;;;;;;;;5020900;28;20057;-69
2023/05/20 02:09:28;;;;;;;10.75;5.55;;;;;;;;;;5031931;28;20049;-68
2023/05/20 02:11:54;;;;;;;16.38;6.00;;;;;;;;;;5032463;28;20069;-68
2023/05/20 02:14:20;;;;;;;10.35;5.03;;;;;;;;;;5032152;28;20050;-68
2023/05/20 02:16:46;;;;;;;15.40;5.68;;;;;;;;;;5032456;28;20044;-68
2023/05/20 02:19:12;;;;;;;10.25;5.93;;;;;;;;;;5032018;28;20522;-69
2023/05/20 02:21:39;;;;;;;12.10;5.22;;;;;;;;;;5031821;28;20563;-68
2023/05/20 02:24:06;;;;;;;7.95;5.20;;;;;;;;;;5031914;28;20099;-68
2023/05/20 02:26:33;;;;;;;9.48;5.22;;;;;;;;;;5032373;28;20046;-68
2023/05/20 02:28:59;;;;;;;11.18;5.20;;;;;;;;;;5031756;28;20482;-68
2023/05/20 02:31:25;;;;;;;10.60;5.47;;;;;;;;;;5032045;28;20084;-68
2023/05/20 02:33:51;;;;;;;8.55;5.63;;;;;;;;;;5032020;28;20045;-68
2023/05/20 02:36:17;;;;;;;9.00;4.97;;;;;;;;;;5031962;28;20046;-69
2023/05/20 02:38:44;;;;;;;9.98;5.30;;;;;;;;;;5031919;28;20516;-68
2023/05/20 02:41:10;;;;;;;8.80;5.15;;;;;;;;;;5031713;28;20477;-69
2023/05/20 02:43:36;;;;;;;11.63;5.65;;;;;;;;;;5031838;28;20133;-68
2023/05/20 02:46:02;;;;;;;10.35;5.20;;;;;;;;;;5031819;28;20042;-69
2023/05/20 02:48:28;;;;;;;8.88;4.90;;;;;;;;;;5032005;28;20053;-68
2023/05/20 02:50:55;;;;;;;11.85;5.40;;;;;;;;;;5030302;28;20045;-68
2023/05/20 02:53:21;;;;;;;9.35;4.72;;;;;;;;;;5031883;28;20056;-68
2023/05/20 02:55:47;;;;;;;9.95;5.20;;;;;;;;;;5031491;28;20033;-69
2023/05/20 02:58:13;;;;;;;8.40;5.22;;;;;;;;;;5017842;28;20045;-68
2023/05/20 03:00:40;;;;;;;10.98;5.32;;;;;;;;;;5031831;28;20053;-68
2023/05/20 03:03:06;;;;;;;17.33;5.32;;;;;;;;;;5031564;28;20087;-69
2023/05/20 03:05:36;;;;;;;10.93;4.55;;;;;;;;;;5031473;28;20486;-69
2023/05/20 03:08:02;;;;;;;8.98;4.90;;;;;;;;;;5014263;28;20398;-69
2023/05/20 03:10:28;;;;;;;9.23;4.70;;;;;;;;;;5031512;28;20049;-69
2023/05/20 03:12:54;;;;;;;9.02;5.05;;;;;;;;;;5034040;28;20044;-68
2023/05/20 03:15:20;;;;;;;9.40;4.72;;;;;;;;;;5021532;28;20045;-68
2023/05/20 03:17:46;;;;;;;9.35;4.50;;;;;;;;;;5035425;28;20038;-68
2023/05/20 03:20:14;;;;;;;9.90;4.57;;;;;;;;;;5017699;28;20103;-68
2023/05/20 03:22:40;;;;;;;12.27;4.65;;;;;;;;;;5035493;28;20045;-69
2023/05/20 03:25:06;;;;;;;8.27;4.43;;;;;;;;;;5035274;28;20379;-69
2023/05/20 03:27:33;;;;;;;8.38;4.10;;;;;;;;;;5035188;28;20081;-69
2023/05/20 03:29:59;;;;;;;9.20;4.22;;;;;;;;;;5035034;28;20085;-69
2023/05/20 03:32:25;;;;;;;8.07;4.30;;;;;;;;;;5035377;28;20128;-69
2023/05/20 03:34:51;;;;;;;7.90;3.80;;;;;;;;;;5009564;28;20053;-69
2023/05/20 03:37:17;;;;;;;9.15;3.92;;;;;;;;;;5021571;28;20045;-69
2023/05/20 03:39:43;;;;;;;7.25;3.90;;;;;;;;;;5034784;28;21126;-69
2023/05/20 03:42:09;;;;;;;8.25;4.05;;;;;;;;;;5035191;28;20056;-68
2023/05/20 03:44:35;;;;;;;7.82;3.80;;;;;;;;;;5034992;28;20057;-68
2023/05/20 03:47:01;;;;;;;8.25;3.75;;;;;;;;;;5035120;28;20045;-68
2023/05/20 03:49:27;;;;;;;7.60;3.67;;;;;;;;;;5034817;28;20049;-69
2023/05/20 03:51:53;;;;;;;7.68;3.72;;;;;;;;;;5034863;28;20543;-68
2023/05/20 03:54:19;;;;;;;8.43;3.42;;;;;;;;;;5034820;28;20509;-68
2023/05/20 03:56:45;;;;;;;7.95;3.70;;;;;;;;;;5033460;28;20088;-68
2023/05/20 03:59:11;;;;;;;5.72;3.25;;;;;;;;;;5034632;28;20075;-68
2023/05/20 04:01:37;;;;;;;9.63;3.47;;;;;;;;;;5018195;28;20052;-69
2023/05/20 04:04:04;;;;;;;7.22;3.55;;;;;;;;;;5034418;28;20141;-69
2023/05/20 04:06:30;;;;;;;5.93;3.38;;;;;;;;;;5034645;28;20056;-68
2023/05/20 04:08:56;;;;;;;6.88;3.53;;;;;;;;;;5034463;28;20064;-69
2023/05/20 04:11:22;;;;;;;6.07;3.50;;;;;;;;;;5034307;28;20091;-69
2023/05/20 04:13:49;;;;;;;7.93;3.40;;;;;;;;;;5018323;28;20045;-69
2023/05/20 04:16:15;;;;;;;4.90;3.05;;;;;;;;;;5034633;28;20041;-69
2023/05/20 04:18:44;;;;;;;8.82;2.90;;;;;;;;;;5034338;28;20379;-68
2023/05/20 04:21:10;;;;;;;6.80;3.00;;;;;;;;;;5034165;28;20041;-68
2023/05/20 04:23:36;;;;;;;7.03;2.90;;;;;;;;;;5032960;28;20147;-68
2023/05/20 04:26:02;;;;;;;6.93;3.00;;;;;;;;;;5029367;28;20200;-68
2023/05/20 04:28:30;;;;;;;8.02;3.47;;;;;;;;;;5034095;28;20479;-68
2023/05/20 04:31:03;;;;;;;7.68;3.40;;;;;;;;;;5034062;28;20045;-68
2023/05/20 04:33:29;;;;;;;8.10;2.92;;;;;;;;;;5016303;28;20045;-68
2023/05/20 04:35:59;;;;;;;5.32;2.90;;;;;;;;;;5033380;28;20047;-68
2023/05/20 04:38:28;;;;;;;5.35;2.90;;;;;;;;;;5033897;28;20124;-68
2023/05/20 04:40:57;;;;;;;5.85;3.00;;;;;;;;;;5033974;28;20061;-68
2023/05/20 04:43:23;;;;;;;6.15;2.55;;;;;;;;;;5032225;28;20054;-68
2023/05/20 04:45:50;;;;;;;6.03;3.08;;;;;;;;;;5033854;28;20115;-68
2023/05/20 04:48:16;;;;;;;4.95;2.97;;;;;;;;;;5033905;28;20044;-68
2023/05/20 04:50:42;;;;;;;6.75;3.00;;;;;;;;;;5033478;28;20042;-68
2023/05/20 04:53:08;;;;;;;10.05;3.17;;;;;;;;;;5021526;28;20446;-68
2023/05/20 04:55:36;;;;;;;5.10;2.55;;;;;;;;;;5030515;28;20100;-68
2023/05/20 04:58:02;;;;;;;5.22;2.63;;;;;;;;;;5033617;28;20056;-68
2023/05/20 05:00:29;;;;;;;5.47;2.55;;;;;;;;;;5026560;28;20061;-69
2023/05/20 05:02:55;;;;;;;5.88;2.47;;;;;;;;;;5033334;28;20481;-68
2023/05/20 05:05:21;;;;;;;6.40;2.38;;;;;;;;;;5033370;28;20148;-68
2023/05/20 05:07:47;;;;;;;4.75;2.40;;;;;;;;;;5015153;28;20140;-68
2023/05/20 05:10:14;;;;;;;4.80;2.65;;;;;;;;;;5033169;28;20128;-68
2023/05/20 05:12:40;;;;;;;6.88;2.75;;;;;;;;;;5033468;28;20413;-68
2023/05/20 05:15:06;;;;;;;5.50;2.42;;;;;;;;;;5033256;28;20058;-69
2023/05/20 05:17:32;;;;;;;4.18;2.20;;;;;;;;;;5033010;28;20045;-69
2023/05/20 05:19:58;;;;;;;5.80;2.47;;;;;;;;;;5033124;28;20402;-69
2023/05/20 05:22:24;;;;;;;5.50;2.47;;;;;;;;;;5033041;28;20145;-69
2023/05/20 05:24:51;;;;;;;5.53;2.40;;;;;;;;;;5032965;28;20067;-70
2023/05/20 05:27:17;;;;;;;5.47;2.65;;;;;;;;;;5031876;28;20164;-70
2023/05/20 05:29:43;;;;;;;7.22;3.00;;;;;;;;;;5032536;28;20049;-69
2023/05/20 05:32:09;;;;;;;5.38;2.25;;;;;;;;;;5032969;28;20124;-69
2023/05/20 05:34:35;;;;;;;4.78;2.05;;;;;;;;;;5032523;28;20057;-70
2023/05/20 05:37:01;;;;;;;5.68;2.50;;;;;;;;;;5015037;28;20041;-69
2023/05/20 05:39:27;;;;;;;5.75;2.35;;;;;;;;;;5017755;28;20410;-70
2023/05/20 05:41:54;;;;;;;5.25;2.30;;;;;;;;;;5020298;28;20045;-69
2023/05/20 05:44:20;;;;;;;5.03;2.42;;;;;;;;;;5033877;28;20103;-69
2023/05/20 05:46:47;;;;;;;5.13;2.28;;;;;;;;;;5032559;28;20052;-69
2023/05/20 05:49:13;;;;;;;3.45;2.05;;;;;;;;;;5032335;28;20037;-69
2023/05/20 05:51:39;;;;;;;4.88;2.13;;;;;;;;;;5032753;28;20379;-69
2023/05/20 05:54:05;;;;;;;4.53;2.30;;;;;;;;;;5032021;28;20049;-69
2023/05/20 05:56:31;;;;;;;5.97;2.10;;;;;;;;;;5032762;28;20045;-69
2023/05/20 05:58:57;;;;;;;4.65;2.17;;;;;;;;;;5032641;28;20049;-69
2023/05/20 06:01:23;;;;;;;4.55;2.10;;;;;;;;;;5031958;28;20038;-69
2023/05/20 06:03:49;;;;;;;4.18;1.90;;;;;;;;;;5032295;28;20050;-69
2023/05/20 06:06:15;;;;;;;4.13;2.10;;;;;;;;;;5032547;28;20057;-70
2023/05/20 06:08:41;;;;;;;3.50;1.90;;;;;;;;;;5032015;28;20033;-70
2023/05/20 06:11:08;;;;;;;3.35;1.92;;;;;;;;;;5030788;28;20111;-69
2023/05/20 06:13:35;;;;;;;4.10;2.13;;;;;;;;;;5032733;28;20063;-70
2023/05/20 06:16:01;;;;;;;4.38;1.88;;;;;;;;;;5032358;28;20046;-69
2023/05/20 06:18:27;;;;;;;6.10;2.20;;;;;;;;;;5014905;28;20045;-69
2023/05/20 06:20:54;;;;;;;4.03;1.90;;;;;;;;;;5031643;28;20045;-68
2023/05/20 06:23:20;;;;;;;5.53;2.05;;;;;;;;;;5031986;28;20081;-68
2023/05/20 06:25:47;;;;;;;5.57;1.90;;;;;;;;;;5014699;28;20100;-68
2023/05/20 06:28:13;;;;;;;3.85;1.95;;;;;;;;;;5031280;28;20340;-68
2023/05/20 06:30:40;;;;;;;4.22;2.20;;;;;;;;;;5030680;28;20466;-68
2023/05/20 06:33:06;;;;;;;3.90;1.90;;;;;;;;;;5032342;28;20081;-68
2023/05/20 06:35:35;;;;;;;3.38;1.92;;;;;;;;;;5032151;28;20041;-68
2023/05/20 06:38:01;;;;;;;6.35;1.95;;;;;;;;;;5032090;28;20052;-68
2023/05/20 06:40:28;;;;;;;7.03;2.10;;;;;;;;;;5014270;28;20060;-68
2023/05/20 06:42:54;;;;;;;5.15;2.40;;;;;;;;;;5030764;28;20038;-69
2023/05/20 06:45:20;;;;;;;5.03;1.98;;;;;;;;;;5030950;28;20045;-68
2023/05/20 06:47:48;;;;;;;4.88;1.98;;;;;;;;;;5034149;28;20089;-69
2023/05/20 06:50:14;;;;;;;4.53;2.13;;;;;;;;;;5018187;28;20451;-69
2023/05/20 06:52:40;;;;;;;3.95;2.05;;;;;;;;;;5034172;28;20073;-68
2023/05/20 06:55:07;;;;;;;3.90;2.10;;;;;;;;;;5034627;28;20041;-68
2023/05/20 06:57:33;;;;;;;4.40;1.90;;;;;;;;;;5036234;28;20049;-68
2023/05/20 06:59:59;;;;;;;4.10;1.85;;;;;;;;;;5035761;28;20072;-68
2023/05/20 07:02:25;;;;;;;4.00;1.90;;;;;;;;;;5035645;28;20041;-68
2023/05/20 07:04:51;;;;;;;5.00;1.90;;;;;;;;;;5034223;28;20176;-68
2023/05/20 07:07:17;;;;;;;4.53;2.00;;;;;;;;;;5035654;28;20125;-68
2023/05/20 07:09:43;;;;;;;4.45;1.80;;;;;;;;;;5035598;28;20549;-68
2023/05/20 07:12:09;;;;;;;4.85;1.98;;;;;;;;;;5036004;28;20087;-68
2023/05/20 07:14:35;;;;;;;3.80;1.70;;;;;;;;;;5035966;28;20463;-69
2023/05/20 07:17:01;;;;;;;4.68;2.00;;;;;;;;;;5018163;28;20434;-69
2023/05/20 07:19:27;;;;;;;5.85;2.28;;;;;;;;;;5001310;28;20099;-68
2023/05/20 07:21:54;;;;;;;5.25;2.00;;;;;;;;;;5035608;28;20124;-68
2023/05/20 07:24:20;;;;;;;4.32;2.10;;;;;;;;;;5017175;28;20050;-70
2023/05/20 07:26:46;;;;;;;3.95;1.80;;;;;;;;;;5038597;28;20037;-69
2023/05/20 07:29:12;;;;;;;4.90;2.10;;;;;;;;;;5039246;28;20120;-70
2023/05/20 07:31:38;;;;;;;5.82;2.00;;;;;;;;;;5035444;28;20456;-70
2023/05/20 07:34:04;;;;;;;3.83;2.17;;;;;;;;;;5034110;28;20049;-69
2023/05/20 07:36:30;;;;;;;6.45;2.28;;;;;;;;;;5033514;28;20044;-69
2023/05/20 07:38:56;;;;;;;4.28;2.00;;;;;;;;;;5015651;28;20041;-69
2023/05/20 07:41:22;;;;;;;4.40;2.00;;;;;;;;;;5035039;28;20068;-69
2023/05/20 07:43:49;;;;;;;5.40;2.03;;;;;;;;;;5033442;28;20049;-69
2023/05/20 07:46:15;;;;;;;3.05;1.75;;;;;;;;;;5041284;28;20120;-70
2023/05/20 07:48:41;;;;;;;4.68;2.03;;;;;;;;;;5024138;28;20056;-69
2023/05/20 07:51:07;;;;;;;4.93;2.08;;;;;;;;;;5054819;28;20045;-70
2023/05/20 07:53:33;;;;;;;4.07;1.92;;;;;;;;;;5039749;28;20376;-70
2023/05/20 07:55:59;;;;;;;4.95;2.30;;;;;;;;;;5034344;28;20105;-69
2023/05/20 07:58:25;;;;;;;6.68;2.50;;;;;;;;;;5033771;28;20094;-69
2023/05/20 08:00:51;;;;;;;7.40;2.40;;;;;;;;;;5034887;28;20123;-69
2023/05/20 08:03:18;;;;;;;5.68;2.40;;;;;;;;;;5033188;28;20506;-70
2023/05/20 08:05:44;;;;;;;4.18;1.95;;;;;;;;;;5034364;28;20053;-70
2023/05/20 08:08:10;;;;;;;4.70;1.92;;;;;;;;;;5033780;28;20093;-70
2023/05/20 08:10:36;;;;;;;4.50;2.00;;;;;;;;;;5014886;28;20049;-70
2023/05/20 08:13:02;;;;;;;3.25;1.90;;;;;;;;;;5032476;28;20033;-70
2023/05/20 08:15:28;;;;;;;5.35;2.05;;;;;;;;;;5034054;28;20056;-70
2023/05/20 08:17:54;;;;;;;4.13;1.92;;;;;;;;;;5033955;28;20059;-70
2023/05/20 08:20:20;;;;;;;5.55;2.00;;;;;;;;;;5034150;28;20099;-70
2023/05/20 08:22:46;;;;;;;3.65;2.00;;;;;;;;;;5034508;28;20048;-70
2023/05/20 08:25:12;;;;;;;2.80;2.00;;;;;;;;;;5033782;28;20041;-69
2023/05/20 08:27:40;;;;;;;4.90;2.03;;;;;;;;;;5031249;28;20480;-69
2023/05/20 08:30:08;;;;;;;3.90;1.92;;;;;;;;;;5051206;28;20502;-69
2023/05/20 08:32:34;;;;;;;4.05;2.15;;;;;;;;;;5046477;28;20364;-69
2023/05/20 08:35:01;;;;;;;4.47;2.10;;;;;;;;;;5034144;28;20556;-69
2023/05/20 08:37:27;;;;;;;7.82;2.05;;;;;;;;;;5015381;28;20049;-69
2023/05/20 08:39:53;;;;;;;5.22;2.03;;;;;;;;;;5039205;28;20390;-69
2023/05/20 08:42:21;;;;;;;5.30;2.17;;;;;;;;;;5033680;28;20144;-70
2023/05/20 08:44:47;;;;;;;8.43;2.10;;;;;;;;;;5032753;28;20053;-70
2023/05/20 08:47:13;;;;;;;4.07;2.10;;;;;;;;;;5032197;28;20526;-70
2023/05/20 08:49:39;;;;;;;6.07;2.10;;;;;;;;;;5029870;28;20175;-70
2023/05/20 08:52:06;;;;;;;4.05;2.00;;;;;;;;;;5033265;28;20041;-70
2023/05/20 08:54:46;;;;;;;4.03;2.10;;;;;;;;;;5016361;28;20053;-70
2023/05/20 08:57:15;;;;;;;4.90;2.10;;;;;;;;;;5014992;28;20102;-69
2023/05/20 08:59:43;;;;;;;4.22;1.80;;;;;;;;;;5033645;28;20158;-69
2023/05/20 09:02:10;;;;;;;5.47;2.03;;;;;;;;;;5032808;28;20198;-69
2023/05/20 09:04:36;;;;;;;3.15;1.92;;;;;;;;;;5033273;28;20061;-69
2023/05/20 09:07:02;;;;;;;6.80;2.22;;;;;;;;;;5033515;28;20049;-69
2023/05/20 09:09:29;;;;;;;5.57;2.00;;;;;;;;;;5032530;28;20482;-69
2023/05/20 09:11:55;;;;;;;7.40;2.30;;;;;;;;;;5016065;28;20499;-67
2023/05/20 09:14:22;;;;;;;4.78;2.22;;;;;;;;;;5032635;28;20048;-68
2023/05/20 09:16:48;;;;;;;3.63;2.10;;;;;;;;;;5032926;28;20429;-69
2023/05/20 09:19:15;;;;;;;3.35;2.13;;;;;;;;;;5032917;28;20049;-69
2023/05/20 09:21:41;;;;;;;5.18;2.70;;;;;;;;;;5033018;28;20061;-69
2023/05/20 09:24:07;;;;;;;5.05;2.17;;;;;;;;;;5032591;28;20057;-69
2023/05/20 09:26:33;;;;;;;4.43;2.10;;;;;;;;;;5033181;28;20049;-69
2023/05/20 09:28:59;;;;;;;6.07;2.00;;;;;;;;;;5033067;28;20084;-69
2023/05/20 09:31:32;;;;;;;11.35;2.33;;;;;;;;;;5015457;28;20049;-69
2023/05/20 09:33:59;;;;;;;4.82;2.10;;;;;;;;;;5015321;28;20136;-69
2023/05/20 09:36:28;;;;;;;4.57;2.15;;;;;;;;;;5032966;28;20056;-69
2023/05/20 09:38:56;;;;;;;7.47;2.40;;;;;;;;;;5032782;28;20103;-69
2023/05/20 09:41:23;;;;;;;4.75;2.20;;;;;;;;;;5015088;28;20117;-69
2023/05/20 09:43:51;;;;;;;5.32;1.92;;;;;;;;;;5032779;28;20056;-69
2023/05/20 09:46:17;;;;;;;4.63;1.90;;;;;;;;;;5015177;28;20372;-69
2023/05/20 09:48:44;;;;;;;5.82;2.13;;;;;;;;;;5032711;28;20417;-69
2023/05/20 09:51:12;;;;;;;4.28;2.20;;;;;;;;;;5014821;28;20049;-69
2023/05/20 09:53:38;;;;;;;9.23;2.65;;;;;;;;;;5032517;28;20049;-69
2023/05/20 09:56:04;;;;;;;5.22;2.20;;;;;;;;;;5014249;28;20044;-69
2023/05/20 09:58:30;;;;;;;4.90;2.03;;;;;;;;;;5032770;28;20176;-69
2023/05/20 10:00:56;;;;;;;4.85;2.28;;;;;;;;;;5032524;28;20045;-69
2023/05/20 10:03:23;;;;;;;2.80;1.80;;;;;;;;;;5032188;28;20439;-69
2023/05/20 10:06:04;;;;;;;8.82;2.20;;;;;;;;;;5032232;28;20049;-69
2023/05/20 10:08:53;;;;;;;3.72;2.15;;;;;;;;;;5014393;28;20494;-70
2023/05/20 10:11:32;;;;;;;6.93;2.42;;;;;;;;;;5031471;28;20046;-69
2023/05/20 10:14:15;;;;;;;5.65;2.25;;;;;;;;;;5032318;28;20153;-69
2023/05/20 10:16:49;;;;;;;4.80;2.30;;;;;;;;;;5032339;28;20046;-70
2023/05/20 10:19:21;;;;;;;7.00;2.20;;;;;;;;;;5032216;28;20057;-70
2023/05/20 10:22:17;;;;;;;4.65;2.08;;;;;;;;;;5031686;28;20421;-69
2023/05/20 10:24:43;;;;;;;6.37;2.20;;;;;;;;;;5027613;28;20057;-69
2023/05/20 10:27:14;;;;;;;3.78;2.13;;;;;;;;;;5032188;28;20136;-69
2023/05/20 10:29:46;;;;;;;6.20;2.20;;;;;;;;;;5032222;28;20045;-69
2023/05/20 10:32:23;;;;;;;4.45;2.33;;;;;;;;;;5032138;28;20049;-69
2023/05/20 10:34:50;;;;;;;4.60;2.10;;;;;;;;;;5032282;28;20041;-69
2023/05/20 10:37:29;;;;;;;5.07;2.22;;;;;;;;;;5014496;28;20049;-69
2023/05/20 10:40:11;;;;;;;6.47;2.20;;;;;;;;;;5030205;28;20472;-69
2023/05/20 10:42:38;;;;;;;6.03;2.15;;;;;;;;;;5032084;28;20438;-68
2023/05/20 10:45:04;;;;;;;5.45;2.20;;;;;;;;;;5032029;28;20433;-69
2023/05/20 10:47:31;;;;;;;4.80;2.10;;;;;;;;;;5014389;28;20091;-69
2023/05/20 10:49:57;;;;;;;4.43;2.40;;;;;;;;;;5031720;28;20129;-69
2023/05/20 10:52:24;;;;;;;4.28;2.10;;;;;;;;;;5031848;28;20514;-69
2023/05/20 10:54:53;;;;;;;5.68;2.22;;;;;;;;;;5032083;28;20041;-69
2023/05/20 10:57:19;;;;;;;4.82;2.40;;;;;;;;;;5031887;28;20052;-69
2023/05/20 10:59:46;;;;;;;5.32;1.95;;;;;;;;;;5030924;28;20080;-69
2023/05/20 11:02:14;;;;;;;5.38;2.45;;;;;;;;;;5031349;28;20042;-69
2023/05/20 11:04:42;;;;;;;8.20;2.30;;;;;;;;;;5031641;28;20119;-69
2023/05/20 11:07:08;;;;;;;5.90;2.28;;;;;;;;;;5031604;28;20046;-70
2023/05/20 11:09:35;;;;;;;9.80;2.67;;;;;;;;;;5031048;28;20359;-71
2023/05/20 11:12:01;;;;;;;7.10;2.60;;;;;;;;;;5013466;28;20037;-70
2023/05/20 11:14:30;;;;;;;4.30;2.00;;;;;;;;;;5030564;28;20111;-69
2023/05/20 11:16:57;;;;;;;6.68;2.58;;;;;;;;;;5030423;28;20049;-69
2023/05/20 11:19:24;;;;;;;6.55;2.50;;;;;;;;;;5031347;28;20512;-69
2023/05/20 11:21:50;;;;;;;3.90;2.22;;;;;;;;;;5031666;28;20045;-69
2023/05/20 11:24:26;;;;;;;7.00;2.20;;;;;;;;;;5031579;28;20041;-69
2023/05/20 11:26:52;;;;;;;7.00;2.50;;;;;;;;;;5030185;28;20052;-70
2023/05/20 11:29:20;;;;;;;4.88;2.45;;;;;;;;;;5030344;28;20071;-69
2023/05/20 11:31:47;;;;;;;5.40;2.30;;;;;;;;;;5029341;28;20049;-69
2023/05/20 11:34:13;;;;;;;4.40;2.28;;;;;;;;;;5032178;28;20417;-69
2023/05/20 11:36:43;;;;;;;5.07;2.38;;;;;;;;;;5035148;28;20041;-69
2023/05/20 11:39:13;;;;;;;7.10;2.47;;;;;;;;;;5035106;28;20081;-68
2023/05/20 11:41:39;;;;;;;3.47;1.92;;;;;;;;;;5035087;28;20045;-69
2023/05/20 11:44:09;;;;;;;5.50;2.20;;;;;;;;;;5034783;28;20513;-69
2023/05/20 11:46:40;;;;;;;5.93;2.72;;;;;;;;;;5034928;28;20046;-68
2023/05/20 11:49:07;;;;;;;6.60;2.45;;;;;;;;;;5033702;28;20477;-69
2023/05/20 11:51:33;;;;;;;6.05;2.20;;;;;;;;;;5035105;28;20047;-69
2023/05/20 11:54:03;;;;;;;5.07;2.33;;;;;;;;;;5032519;28;20045;-69
2023/05/20 11:56:42;;;;;;;5.60;2.40;;;;;;;;;;5016938;28;20462;-69
2023/05/20 11:59:09;;;;;;;5.43;2.08;;;;;;;;;;5034547;28;20375;-69
2023/05/20 12:01:40;;;;;;;5.95;2.50;;;;;;;;;;5034126;28;20045;-69
2023/05/20 12:04:07;;;;;;;7.47;2.88;;;;;;;;;;5015648;28;20178;-69
2023/05/20 12:06:33;;;;;;;6.65;2.35;;;;;;;;;;5017038;28;20163;-69
2023/05/20 12:09:07;;;;;;;4.80;2.40;;;;;;;;;;5034339;28;20107;-69
2023/05/20 12:11:34;;;;;;;4.72;2.50;;;;;;;;;;5016912;28;20050;-69
2023/05/20 12:14:01;;;;;;;6.22;2.35;;;;;;;;;;5034503;28;20160;-69
2023/05/20 12:16:27;;;;;;;6.10;2.70;;;;;;;;;;5034236;28;20056;-69
2023/05/20 12:18:53;;;;;;;4.53;2.10;;;;;;;;;;5016451;28;20596;-69
2023/05/20 12:21:19;;;;;;;6.65;2.30;;;;;;;;;;5033294;28;20045;-69
2023/05/20 12:23:45;;;;;;;4.47;2.00;;;;;;;;;;5034371;28;20505;-69
2023/05/20 12:26:11;;;;;;;4.47;2.40;;;;;;;;;;5034532;28;20042;-69
2023/05/20 12:28:37;;;;;;;5.38;2.40;;;;;;;;;;5033176;28;20081;-69
2023/05/20 12:31:03;;;;;;;7.55;2.50;;;;;;;;;;5033711;28;20055;-70
2023/05/20 12:33:29;;;;;;;8.50;2.65;;;;;;;;;;5016694;28;20535;-69
2023/05/20 12:35:55;;;;;;;5.10;2.55;;;;;;;;;;5034343;28;20128;-69
2023/05/20 12:38:21;;;;;;;6.97;2.80;;;;;;;;;;5016500;28;20088;-69
2023/05/20 12:40:47;;;;;;;6.10;3.00;;;;;;;;;;5033935;28;20099;-69
2023/05/20 12:43:13;;;;;;;7.10;2.65;;;;;;;;;;5034153;28;20037;-69
2023/05/20 12:45:40;;;;;;;5.45;2.50;;;;;;;;;;5014284;28;20049;-69
2023/05/20 12:48:06;;;;;;;7.95;2.70;;;;;;;;;;5033430;28;20041;-67
2023/05/20 12:50:32;;;;;;;5.32;2.85;;;;;;;;;;5015192;28;20060;-67
2023/05/20 12:52:58;;;;;;;7.82;2.97;;;;;;;;;;5015426;28;20049;-68
2023/05/20 12:55:24;;;;;;;6.07;3.08;;;;;;;;;;5031702;28;20049;-67
2023/05/20 12:57:50;;;;;;;7.05;2.92;;;;;;;;;;5033524;28;20102;-68
2023/05/20 13:00:17;;;;;;;6.57;2.80;;;;;;;;;;5032997;28;20053;-67
2023/05/20 13:02:43;;;;;;;6.22;2.90;;;;;;;;;;5015677;28;20045;-68
2023/05/20 13:05:09;;;;;;;9.38;2.90;;;;;;;;;;5033325;28;20053;-68
2023/05/20 13:07:35;;;;;;;10.70;3.53;;;;;;;;;;5033402;28;20547;-67
2023/05/20 13:10:01;;;;;;;6.72;2.80;;;;;;;;;;5015579;28;20100;-67
2023/05/20 13:12:27;;;;;;;6.88;3.03;;;;;;;;;;5015610;28;20402;-68
2023/05/20 13:14:53;;;;;;;7.72;2.80;;;;;;;;;;5025544;28;20041;-66
2023/05/20 13:17:19;;;;;;;5.60;2.85;;;;;;;;;;5053164;28;20072;-67
2023/05/20 13:19:45;;;;;;;6.75;2.80;;;;;;;;;;5036678;28;20122;-67
2023/05/20 13:22:11;;;;;;;8.70;3.03;;;;;;;;;;5031882;28;20052;-67
2023/05/20 13:24:38;;;;;;;4.57;2.15;;;;;;;;;;5031068;28;20041;-68
2023/05/20 13:27:04;;;;;;;12.35;3.13;;;;;;;;;;5014218;28;20509;-68
2023/05/20 13:29:30;;;;;;;8.43;2.85;;;;;;;;;;5032902;28;20140;-68
2023/05/20 13:31:56;;;;;;;5.20;2.80;;;;;;;;;;5032496;28;20410;-68
2023/05/20 13:34:22;;;;;;;7.05;2.70;;;;;;;;;;5015104;28;20107;-67
2023/05/20 13:36:48;;;;;;;7.70;3.10;;;;;;;;;;5033308;28;20049;-67
2023/05/20 13:39:15;;;;;;;7.82;2.97;;;;;;;;;;5032837;28;20068;-67
2023/05/20 13:41:41;;;;;;;7.22;3.10;;;;;;;;;;5031634;28;20140;-67
2023/05/20 13:44:07;;;;;;;5.57;2.80;;;;;;;;;;5031358;28;20133;-68
2023/05/20 13:46:35;;;;;;;7.30;3.00;;;;;;;;;;5014393;28;20068;-67
2023/05/20 13:49:01;;;;;;;7.05;3.00;;;;;;;;;;5032250;28;20379;-69
2023/05/20 13:51:27;;;;;;;6.45;3.00;;;;;;;;;;5032668;28;20049;-67
2023/05/20 13:53:53;;;;;;;6.55;2.95;;;;;;;;;;5032691;28;20071;-68
2023/05/20 13:56:19;;;;;;;6.18;2.63;;;;;;;;;;5032693;28;20045;-68
2023/05/20 13:58:45;;;;;;;8.68;3.30;;;;;;;;;;5032576;28;20068;-69
2023/05/20 14:01:11;;;;;;;7.40;3.13;;;;;;;;;;5014339;28;20330;-68
2023/05/20 14:03:39;;;;;;;8.32;3.30;;;;;;;;;;5032431;28;20172;-68
2023/05/20 14:06:05;;;;;;;8.40;3.38;;;;;;;;;;5031826;28;20065;-68
2023/05/20 14:08:31;;;;;;;8.55;3.15;;;;;;;;;;5013523;28;20087;-68
2023/05/20 14:10:57;;;;;;;7.50;3.25;;;;;;;;;;5032081;28;20512;-69
2023/05/20 14:13:24;;;;;;;6.63;2.90;;;;;;;;;;5032473;28;20041;-68
2023/05/20 14:15:50;;;;;;;6.97;3.10;;;;;;;;;;5032227;28;20131;-68
2023/05/20 14:18:16;;;;;;;7.03;2.92;;;;;;;;;;5030965;28;20129;-68
2023/05/20 14:20:43;;;;;;;6.90;2.70;;;;;;;;;;5013906;28;20041;-68
2023/05/20 14:23:09;;;;;;;6.47;2.80;;;;;;;;;;5030580;28;20098;-69
2023/05/20 14:25:35;;;;;;;9.15;3.00;;;;;;;;;;5031526;28;20112;-68
2023/05/20 14:28:01;;;;;;;7.88;2.78;;;;;;;;;;5031942;28;20156;-69
2023/05/20 14:30:27;;;;;;;6.82;2.72;;;;;;;;;;5030288;28;20045;-68
2023/05/20 14:32:53;;;;;;;9.75;2.90;;;;;;;;;;5032027;28;20048;-69
2023/05/20 14:35:19;;;;;;;7.28;2.90;;;;;;;;;;5014182;28;20044;-69
2023/05/20 14:37:45;;;;;;;8.07;3.08;;;;;;;;;;5032476;28;20045;-70
2023/05/20 14:40:12;;;;;;;8.95;3.03;;;;;;;;;;5011101;28;20052;-69